Time;durP1;ratioP1;P1;durP2;ratioP2;P2;SDS_P1;SDS_P2;PMS_P1;PMS_P2;Temp;Humidity;BMP_temperature;BMP_pressure;BME280_temperature;BME280_humidity;BME280_pressure;Samples;Min_cycle;Max_cycle;Signal;HPM_P1;HPM_P2
2022/09/21 00:00:39;;;;;;;5.43;3.40;;;;;;;12.86;74.22;101025.19;10251070;28;20058;-77
2022/09/21 00:05:41;;;;;;;5.47;3.70;;;;;;;12.82;73.32;101029.06;10248872;28;21382;-73
2022/09/21 00:10:48;;;;;;;4.53;3.55;;;;;;;12.89;73.96;101025.81;10256810;28;20163;-74
2022/09/21 00:15:50;;;;;;;4.53;3.65;;;;;;;12.84;72.60;101032.50;10252538;28;20054;-73
2022/09/21 00:20:51;;;;;;;4.25;2.80;;;;;;;12.77;72.96;101025.91;10258640;28;20042;-74
2022/09/21 00:26:06;;;;;;;4.78;2.67;;;;;;;12.77;72.71;101031.25;10254852;28;20417;-73
2022/09/21 00:31:11;;;;;;;4.97;3.97;;;;;;;12.33;74.34;101041.72;10260791;28;20058;-75
2022/09/21 00:36:17;;;;;;;4.68;3.83;;;;;;;12.31;75.70;101039.16;10277143;28;20141;-75
2022/09/21 00:41:19;;;;;;;4.00;3.47;;;;;;;12.31;74.58;101040.94;10281903;28;20070;-74
2022/09/21 00:46:27;;;;;;;5.30;4.03;;;;;;;12.12;75.34;101037.00;10295343;28;20134;-76
2022/09/21 00:51:29;;;;;;;4.45;4.05;;;;;;;11.87;76.61;101043.28;10268621;28;20058;-74
2022/09/21 00:56:30;;;;;;;7.85;4.05;;;;;;;11.70;77.01;101039.19;10263811;28;20051;-76
2022/09/21 01:01:32;;;;;;;5.05;3.63;;;;;;;11.84;78.15;101039.03;10298116;28;20035;-78
2022/09/21 01:06:36;;;;;;;5.18;4.05;;;;;;;11.85;76.24;101037.19;10289518;28;20051;-77
2022/09/21 01:12:02;;;;;;;4.38;3.80;;;;;;;11.76;76.37;101053.88;10258629;28;20071;-77
2022/09/21 01:17:31;;;;;;;4.25;3.50;;;;;;;11.79;76.35;101046.50;10257632;28;20047;-73
2022/09/21 01:23:02;;;;;;;4.03;3.63;;;;;;;11.64;76.19;101051.13;10261830;28;20482;-74
2022/09/21 01:28:06;;;;;;;4.05;3.75;;;;;;;11.76;76.41;101056.56;10258428;28;20062;-74
2022/09/21 01:33:20;;;;;;;;;;;;;;;11.50;76.78;101057.47;10261209;28;20043;-74
2022/09/21 01:39:05;;;;;;;4.13;3.72;;;;;;;11.32;77.45;101062.28;10267582;28;19930;-75
2022/09/21 01:44:11;;;;;;;4.15;3.75;;;;;;;11.34;77.45;101066.69;10247460;28;20037;-78
2022/09/21 01:49:26;;;;;;;3.72;3.40;;;;;;;11.55;77.41;101054.47;10290263;28;20060;-75
2022/09/21 01:54:36;;;;;;;5.10;3.83;;;;;;;11.43;76.21;101060.69;10262640;28;20054;-75
2022/09/21 01:59:44;;;;;;;5.35;4.15;;;;;;;11.24;76.96;101061.13;10256964;28;20046;-74
2022/09/21 02:04:48;;;;;;;3.65;3.35;;;;;;;11.26;77.95;101054.75;10286530;28;20043;-75
2022/09/21 02:09:50;;;;;;;6.25;3.75;;;;;;;11.32;76.34;101043.63;10294155;28;20142;-75
2022/09/21 02:14:54;;;;;;;3.85;3.55;;;;;;;11.08;77.37;101050.69;10275677;28;20058;-75
2022/09/21 02:20:16;;;;;;;3.93;3.50;;;;;;;11.14;77.51;101050.28;10263626;28;20059;-75
2022/09/21 02:25:38;;;;;;;4.55;4.03;;;;;;;11.34;76.52;101056.00;10261291;28;20050;-74
2022/09/21 02:30:46;;;;;;;3.55;3.15;;;;;;;11.11;76.79;101045.16;10248648;28;20051;-74
2022/09/21 02:35:50;;;;;;;4.75;4.25;;;;;;;10.87;78.25;101051.22;10256887;28;20051;-73
2022/09/21 02:41:08;;;;;;;6.30;4.15;;;;;;;10.75;78.33;101046.75;10255723;28;20051;-74
2022/09/21 02:46:18;;;;;;;4.22;3.83;;;;;;;10.74;78.49;101059.19;10252070;28;20478;-75
2022/09/21 02:51:25;;;;;;;4.35;3.70;;;;;;;10.60;78.55;101060.16;10256780;28;20494;-75
2022/09/21 02:56:29;;;;;;;6.68;4.57;;;;;;;10.55;78.99;101054.28;10256331;28;20047;-74
2022/09/21 03:01:32;;;;;;;4.32;3.92;;;;;;;10.60;79.07;101061.97;10262424;28;20051;-75
2022/09/21 03:06:33;;;;;;;4.95;4.55;;;;;;;10.39;79.85;101058.94;10253106;28;20051;-76
2022/09/21 03:11:38;;;;;;;5.40;3.97;;;;;;;10.29;80.31;101057.81;10264641;28;20059;-74
2022/09/21 03:16:39;;;;;;;5.90;3.92;;;;;;;10.26;80.33;101056.22;10265654;28;20049;-74
2022/09/21 03:21:41;;;;;;;7.10;4.75;;;;;;;10.34;79.62;101063.69;10255654;28;20494;-74
2022/09/21 03:26:45;;;;;;;7.15;4.80;;;;;;;10.28;79.68;101062.25;10259447;28;20065;-74
2022/09/21 03:31:46;;;;;;;5.30;3.92;;;;;;;10.41;79.31;101073.84;10258323;28;20129;-75
2022/09/21 03:36:48;;;;;;;5.03;4.15;;;;;;;10.41;78.25;101073.00;10255380;28;20054;-74
2022/09/21 03:41:49;;;;;;;4.45;4.05;;;;;;;10.19;78.45;101078.84;10252681;28;20051;-74
2022/09/21 03:46:51;;;;;;;7.07;4.65;;;;;;;10.16;78.64;101079.88;10253487;28;20062;-74
2022/09/21 03:51:53;;;;;;;10.38;5.82;;;;;;;10.07;78.61;101076.06;10248615;28;20055;-76
2022/09/21 03:56:54;;;;;;;4.88;4.35;;;;;;;10.09;78.19;101083.94;10248959;28;20097;-75
2022/09/21 04:01:56;;;;;;;4.50;3.50;;;;;;;10.27;78.20;101093.34;10252575;28;20466;-75
2022/09/21 04:06:57;;;;;;;5.50;4.00;;;;;;;10.34;77.44;101077.00;10255492;28;20074;-75
2022/09/21 04:11:59;;;;;;;4.63;3.60;;;;;;;10.58;76.73;101090.47;10269211;28;20031;-77
2022/09/21 04:17:00;;;;;;;3.95;3.63;;;;;;;10.51;76.19;101092.72;10289542;28;20050;-74
2022/09/21 04:22:01;;;;;;;4.05;3.50;;;;;;;10.29;76.76;101100.41;10250447;28;20055;-76
2022/09/21 04:27:03;;;;;;;5.35;3.30;;;;;;;10.09;77.96;101094.56;10254795;28;20065;-74
2022/09/21 04:32:04;;;;;;;4.85;4.15;;;;;;;10.11;77.41;101092.66;10248390;28;20162;-76
2022/09/21 04:37:12;;;;;;;5.40;4.20;;;;;;;10.10;77.43;101098.91;10250501;28;20043;-75
2022/09/21 04:42:13;;;;;;;4.90;3.88;;;;;;;9.97;77.94;101092.69;10256478;28;20054;-76
2022/09/21 04:47:15;;;;;;;4.88;3.80;;;;;;;9.93;78.20;101107.16;10248775;28;20381;-73
2022/09/21 04:52:16;;;;;;;6.00;3.58;;;;;;;9.83;78.21;101099.78;10250246;28;20073;-74
2022/09/21 04:57:19;;;;;;;5.32;4.13;;;;;;;9.67;78.49;101110.50;10242076;28;20050;-74
2022/09/21 05:02:20;;;;;;;6.60;3.72;;;;;;;9.75;77.80;101106.53;10237249;28;20368;-76
2022/09/21 05:07:22;;;;;;;5.18;3.20;;;;;;;9.79;77.91;101116.00;10240298;28;20046;-76
2022/09/21 05:12:23;;;;;;;4.50;3.60;;;;;;;9.68;77.39;101122.00;10262741;28;20061;-76
2022/09/21 05:17:25;;;;;;;4.78;3.40;;;;;;;9.62;78.02;101123.22;10284838;28;20110;-76
2022/09/21 05:22:28;;;;;;;7.38;4.10;;;;;;;9.66;77.51;101134.53;10283342;28;20110;-76
2022/09/21 05:27:33;;;;;;;5.28;4.22;;;;;;;9.75;76.85;101136.63;10282560;28;20115;-77
2022/09/21 05:32:51;;;;;;;5.53;4.63;;;;;;;9.72;76.82;101134.16;10278179;28;20058;-76
2022/09/21 05:38:03;;;;;;;6.60;4.32;;;;;;;9.69;77.24;101137.00;10287418;28;20039;-79
2022/09/21 05:43:04;;;;;;;3.92;3.55;;;;;;;9.79;77.27;101138.13;10295205;28;20064;-81
2022/09/21 05:48:19;;;;;;;6.07;4.13;;;;;;;9.88;76.98;101142.88;10292662;28;20062;-75
2022/09/21 05:53:46;;;;;;;11.10;9.45;;;;;;;9.82;77.30;101143.25;10273424;28;20062;-78
2022/09/21 05:58:58;;;;;;;7.40;5.28;;;;;;;9.72;77.96;101150.09;10263874;28;20061;-76
2022/09/21 06:04:01;;;;;;;5.10;4.57;;;;;;;9.93;76.70;101144.38;10283509;28;20040;-75
2022/09/21 06:09:03;;;;;;;8.00;6.30;;;;;;;10.12;76.49;101152.91;10287905;28;20124;-77
2022/09/21 06:14:05;;;;;;;4.68;4.18;;;;;;;10.27;76.91;101157.22;10270409;28;20502;-72
2022/09/21 06:19:10;;;;;;;12.48;11.07;;;;;;;10.59;75.56;101167.59;10238372;28;20071;-73
2022/09/21 06:24:12;;;;;;;9.23;5.72;;;;;;;10.92;74.40;101168.97;10249397;28;20053;-73
2022/09/21 06:29:13;;;;;;;6.68;4.97;;;;;;;11.00;73.41;101163.09;10240696;28;20755;-73
2022/09/21 06:34:15;;;;;;;5.72;3.95;;;;;;;11.02;73.48;101163.00;10237909;28;20062;-73
2022/09/21 06:39:16;;;;;;;7.88;5.40;;;;;;;11.05;73.42;101161.00;10240517;28;20215;-74
2022/09/21 06:44:17;;;;;;;5.80;5.00;;;;;;;11.21;73.22;101168.78;10237475;28;20054;-71
2022/09/21 06:49:19;;;;;;;6.55;5.03;;;;;;;11.37;72.82;101168.59;10232706;28;20051;-73
2022/09/21 06:54:20;;;;;;;10.13;8.18;;;;;;;11.54;72.49;101180.75;10237624;28;20695;-73
2022/09/21 06:59:22;;;;;;;6.05;3.90;;;;;;;11.71;72.04;101176.91;10233305;28;20094;-72
2022/09/21 07:04:23;;;;;;;4.95;3.85;;;;;;;11.91;71.52;101186.16;10232501;28;20069;-74
2022/09/21 07:09:25;;;;;;;6.57;5.15;;;;;;;12.06;71.31;101180.72;10207374;28;20533;-73
2022/09/21 07:14:47;;;;;;;6.55;4.13;;;;;;;12.25;70.70;101191.78;10231352;28;20102;-73
2022/09/21 07:19:49;;;;;;;5.95;3.72;;;;;;;12.44;70.14;101191.25;10235383;28;20059;-73
2022/09/21 07:24:50;;;;;;;6.20;3.67;;;;;;;12.63;69.43;101188.09;10241687;28;20175;-71
2022/09/21 07:29:52;;;;;;;5.22;2.85;;;;;;;12.79;69.00;101189.59;10245238;28;20050;-76
2022/09/21 07:34:55;;;;;;;5.85;2.72;;;;;;;13.05;68.08;101185.81;10241011;28;20074;-75
2022/09/21 07:39:57;;;;;;;4.35;2.78;;;;;;;13.24;67.48;101190.63;10248457;28;20071;-74
2022/09/21 07:44:59;;;;;;;5.88;2.75;;;;;;;13.51;65.83;101196.66;10244237;28;20110;-73
2022/09/21 07:50:05;;;;;;;4.38;2.90;;;;;;;13.71;65.08;101187.91;10245570;28;20138;-73
2022/09/21 07:55:07;;;;;;;3.10;2.20;;;;;;;13.82;65.10;101188.91;10245206;28;20062;-74
2022/09/21 08:00:09;;;;;;;5.50;2.50;;;;;;;13.86;64.56;101191.19;10233396;28;20063;-75
2022/09/21 08:05:10;;;;;;;4.38;2.60;;;;;;;13.97;65.07;101188.50;10251447;28;20162;-73
2022/09/21 08:10:11;;;;;;;5.15;2.17;;;;;;;14.29;64.16;101195.78;10239016;28;20050;-73
2022/09/21 08:15:13;;;;;;;3.33;1.88;;;;;;;14.60;63.52;101192.41;10240142;28;20549;-72
2022/09/21 08:20:34;;;;;;;4.63;2.80;;;;;;;14.89;62.22;101194.53;10235506;28;20065;-75
2022/09/21 08:25:36;;;;;;;4.25;3.05;;;;;;;15.11;61.32;101194.41;10248479;28;20158;-75
2022/09/21 08:30:37;;;;;;;4.95;2.88;;;;;;;15.35;61.83;101190.63;10221484;28;20131;-73
2022/09/21 08:35:38;;;;;;;3.45;2.65;;;;;;;15.70;60.50;101184.03;10222651;28;20055;-74
2022/09/21 08:40:40;;;;;;;4.40;2.10;;;;;;;15.91;59.01;101192.06;10221375;28;20070;-75
2022/09/21 08:45:44;;;;;;;6.35;2.83;;;;;;;16.00;59.13;101195.75;10223583;28;20067;-70
2022/09/21 08:50:59;;;;;;;4.35;2.45;;;;;;;16.10;57.14;101195.81;10233868;28;20071;-77
2022/09/21 08:56:01;;;;;;;5.10;1.95;;;;;;;16.51;56.96;101189.38;10224160;28;20046;-74
2022/09/21 09:01:18;;;;;;;3.60;2.10;;;;;;;16.88;56.43;101187.88;10225927;28;20066;-75
2022/09/21 09:06:52;;;;;;;3.28;1.98;;;;;;;17.48;53.49;101187.66;10224360;28;20042;-73
2022/09/21 09:12:09;;;;;;;5.55;2.30;;;;;;;17.85;51.84;101181.44;10232768;28;20046;-74
2022/09/21 09:17:39;;;;;;;4.65;2.08;;;;;;;17.99;50.10;101180.97;10234924;28;20051;-73
2022/09/21 09:23:07;;;;;;;3.30;1.50;;;;;;;18.05;50.10;101178.69;10231017;28;20047;-71
2022/09/21 09:28:27;;;;;;;2.83;0.93;;;;;;;18.57;47.47;101189.72;10226621;28;20093;-72
2022/09/21 09:33:45;;;;;;;1.88;1.23;;;;;;;18.50;47.02;101177.84;10228611;28;20058;-74
2022/09/21 09:39:01;;;;;;;4.22;1.42;;;;;;;18.92;47.24;101174.53;10229857;28;20050;-73
2022/09/21 09:44:19;;;;;;;2.33;1.42;;;;;;;19.37;46.21;101164.59;10227120;28;20051;-70
2022/09/21 09:49:42;;;;;;;1.95;0.77;;;;;;;19.57;44.52;101166.03;10228171;28;20101;-74
2022/09/21 09:54:43;;;;;;;2.80;1.00;;;;;;;20.37;44.21;101159.47;10230575;28;20059;-72
2022/09/21 09:59:52;;;;;;;3.33;1.02;;;;;;;21.26;42.09;101161.53;10230047;28;20144;-73
2022/09/21 10:05:07;;;;;;;2.58;1.63;;;;;;;24.90;35.65;101150.84;10224063;28;20132;-75
2022/09/21 10:10:27;;;;;;;4.03;0.90;;;;;;;28.27;30.33;101146.59;10218625;28;20062;-71
2022/09/21 10:15:28;;;;;;;2.85;0.93;;;;;;;29.49;28.35;101131.75;10220388;28;20554;-71
2022/09/21 10:20:31;;;;;;;2.22;0.95;;;;;;;27.35;30.32;101142.09;10227662;28;20066;-74
2022/09/21 10:25:34;;;;;;;4.70;1.85;;;;;;;26.03;30.95;101142.59;10227310;28;20059;-75
2022/09/21 10:30:40;;;;;;;2.38;0.63;;;;;;;26.35;32.01;101126.50;10223282;28;21022;-73
2022/09/21 10:35:51;;;;;;;2.33;0.80;;;;;;;28.80;28.01;101120.78;10227090;28;20398;-76
2022/09/21 10:40:53;;;;;;;4.35;1.23;;;;;;;32.74;23.37;101105.25;10230793;28;20102;-75
2022/09/21 10:45:56;;;;;;;2.28;0.95;;;;;;;34.65;20.84;101117.56;10233349;28;20911;-74
2022/09/21 10:50:58;;;;;;;2.70;0.75;;;;;;;35.05;19.07;101107.06;10242417;28;20055;-76
2022/09/21 10:56:11;;;;;;;0.93;0.35;;;;;;;32.51;22.96;101111.75;10227475;28;20065;-74
2022/09/21 11:01:27;;;;;;;1.48;0.57;;;;;;;31.48;23.52;101107.81;10220374;28;20058;-73
2022/09/21 11:06:34;;;;;;;1.23;0.55;;;;;;;34.79;20.39;101109.66;10224717;28;20047;-73
2022/09/21 11:11:58;;;;;;;1.02;0.20;;;;;;;38.21;16.80;101099.31;10225642;28;20046;-76
2022/09/21 11:17:11;;;;;;;2.28;0.30;;;;;;;38.89;15.52;101092.03;10227684;28;20054;-77
2022/09/21 11:22:30;;;;;;;0.88;0.17;;;;;;;40.37;14.75;101088.44;10222757;28;21052;-78
2022/09/21 11:28:00;;;;;;;2.33;0.28;;;;;;;41.03;13.27;101085.56;10225429;28;20046;-76
2022/09/21 11:33:41;;;;;;;1.05;0.30;;;;;;;42.30;12.72;101085.06;10217860;28;20067;-74
2022/09/21 11:38:46;;;;;;;1.60;0.45;;;;;;;42.75;12.23;101082.22;10220800;28;20050;-74
2022/09/21 11:44:09;;;;;;;1.70;0.13;;;;;;;43.37;11.93;101072.06;10224979;28;20054;-76
2022/09/21 11:49:45;;;;;;;1.17;0.22;;;;;;;43.99;11.09;101071.00;10228499;28;20047;-77
2022/09/21 11:54:57;;;;;;;2.22;0.40;;;;;;;42.71;10.16;101059.66;10217958;28;20054;-80
2022/09/21 12:00:04;;;;;;;1.30;0.15;;;;;;;43.36;10.68;101064.78;10251040;28;20062;-78
2022/09/21 12:05:19;;;;;;;1.85;0.20;;;;;;;41.66;11.50;101049.63;10225552;28;20054;-73
2022/09/21 12:11:00;;;;;;;0.75;0.10;;;;;;;35.83;15.55;101042.66;10228261;28;20047;-77
2022/09/21 12:16:37;;;;;;;1.73;0.17;;;;;;;38.27;14.64;101028.66;10228529;28;20534;-75
2022/09/21 12:21:49;;;;;;;1.08;0.30;;;;;;;42.21;11.41;101034.66;10218946;28;20254;-76
2022/09/21 12:26:56;;;;;;;1.10;0.20;;;;;;;43.68;10.47;101032.72;10229373;28;20625;-79
2022/09/21 12:32:06;;;;;;;0.73;0.10;;;;;;;45.31;10.54;101035.72;10229887;28;20062;-77
2022/09/21 12:37:23;;;;;;;0.93;0.55;;;;;;;44.84;9.61;101031.00;10226935;28;20844;-76
2022/09/21 12:42:33;;;;;;;1.05;0.20;;;;;;;45.46;9.09;101027.88;10220846;28;20460;-76
2022/09/21 12:47:52;;;;;;;3.20;0.10;;;;;;;45.51;9.37;101010.81;10215862;28;20062;-78
2022/09/21 12:52:56;;;;;;;2.17;0.10;;;;;;;44.84;9.67;101011.34;10222096;28;20497;-73
2022/09/21 12:58:29;;;;;;;0.85;0.10;;;;;;;38.38;13.60;101010.75;10222717;28;20927;-76
2022/09/21 13:04:00;;;;;;;0.75;0.00;;;;;;;31.42;19.27;101003.41;10220845;28;21352;-76
2022/09/21 13:09:03;;;;;;;0.55;0.03;;;;;;;28.07;23.44;100998.97;10220740;28;20058;-74
2022/09/21 13:14:12;;;;;;;0.75;0.10;;;;;;;34.18;18.00;100994.75;10219013;28;22795;-77
2022/09/21 13:19:21;;;;;;;0.80;0.03;;;;;;;37.33;14.46;100988.69;10224714;28;20856;-76
2022/09/21 13:24:28;;;;;;;0.32;0.10;;;;;;;39.42;13.22;100986.16;10224642;28;20063;-77
2022/09/21 13:29:32;;;;;;;0.50;0.10;;;;;;;39.65;12.79;100974.47;10219050;28;20148;-77
2022/09/21 13:34:35;;;;;;;0.32;0.00;;;;;;;38.27;12.58;100972.22;10219093;28;20059;-76
2022/09/21 13:39:49;;;;;;;1.35;0.20;;;;;;;32.55;17.23;100969.66;10196822;28;20059;-78
2022/09/21 13:44:51;;;;;;;0.40;0.00;;;;;;;29.09;21.10;100965.78;10173173;28;20545;-73
2022/09/21 13:49:53;;;;;;;1.83;0.57;;;;;;;27.62;23.43;100964.28;10194958;28;20059;-75
2022/09/21 13:55:04;;;;;;;1.48;0.22;;;;;;;27.75;24.69;100961.47;10187591;28;20323;-74
2022/09/21 14:00:11;;;;;;;0.30;0.10;;;;;;;27.61;25.40;100959.88;10229902;28;20054;-74
2022/09/21 14:05:22;;;;;;;0.65;0.00;;;;;;;26.45;25.68;100944.06;10233086;28;20574;-73
2022/09/21 14:10:24;;;;;;;1.80;0.43;;;;;;;24.91;27.56;100953.75;10225954;28;20055;-75
2022/09/21 14:15:26;;;;;;;1.05;0.20;;;;;;;24.22;29.27;100949.09;10233193;28;20050;-75
2022/09/21 14:20:30;;;;;;;1.00;0.20;;;;;;;23.45;30.03;100957.72;10232657;28;20081;-75
2022/09/21 14:25:52;;;;;;;0.80;0.20;;;;;;;22.79;31.56;100954.94;10231391;28;20458;-73
2022/09/21 14:30:57;;;;;;;1.08;0.20;;;;;;;22.20;32.19;100947.53;10242023;28;20279;-77
2022/09/21 14:36:04;;;;;;;0.63;0.20;;;;;;;22.09;32.83;100947.97;10229830;28;20051;-75
2022/09/21 14:41:07;;;;;;;1.05;0.10;;;;;;;21.79;32.80;100940.56;10228940;28;20115;-72
2022/09/21 14:46:23;;;;;;;1.23;0.20;;;;;;;21.58;33.04;100945.81;10228530;28;20054;-72
2022/09/21 14:51:45;;;;;;;0.50;0.20;;;;;;;21.33;32.72;100937.78;10225045;28;20150;-74
2022/09/21 14:57:11;;;;;;;1.05;0.22;;;;;;;20.79;33.91;100931.28;10228745;28;20047;-75
2022/09/21 15:02:21;;;;;;;0.98;0.20;;;;;;;20.31;34.58;100931.19;10226239;28;20482;-71
2022/09/21 15:13:10;;;;;;;0.55;0.15;;;;;;;19.87;35.74;100911.78;10228474;28;20066;-76
2022/09/21 15:18:19;;;;;;;1.83;0.55;;;;;;;19.66;36.28;100910.38;10225621;28;20066;-72
2022/09/21 15:23:24;;;;;;;0.98;0.30;;;;;;;19.52;36.05;100913.75;10227959;28;20046;-72
2022/09/21 15:28:34;;;;;;;0.45;0.20;;;;;;;19.58;37.79;100913.06;10222616;28;20059;-72
2022/09/21 15:33:56;;;;;;;1.17;0.32;;;;;;;19.74;37.31;100896.88;10224746;28;20073;-73
2022/09/21 15:38:59;;;;;;;0.45;0.20;;;;;;;19.91;36.24;100908.56;10224442;28;20055;-71
2022/09/21 15:44:13;;;;;;;1.60;0.32;;;;;;;19.86;37.26;100901.97;10222563;28;20046;-71
2022/09/21 15:49:20;;;;;;;2.40;0.37;;;;;;;19.99;37.14;100909.59;10237397;28;20050;-70
2022/09/21 15:54:29;;;;;;;0.85;0.20;;;;;;;19.98;36.94;100906.00;10223232;28;20286;-72
2022/09/21 15:59:30;;;;;;;1.00;0.22;;;;;;;19.92;37.00;100898.59;10226226;28;20042;-73
2022/09/21 16:04:32;;;;;;;1.05;0.20;;;;;;;19.85;37.08;100898.44;10225991;28;20050;-72
2022/09/21 16:09:41;;;;;;;0.80;0.20;;;;;;;19.74;37.88;100902.28;10224186;28;20062;-70
2022/09/21 16:14:55;;;;;;;1.90;0.22;;;;;;;19.56;37.91;100902.44;10222121;28;20537;-70
2022/09/21 16:20:18;;;;;;;2.72;0.20;;;;;;;19.27;40.37;100910.13;10227416;28;20050;-72
2022/09/21 16:25:20;;;;;;;3.03;0.35;;;;;;;19.16;40.70;100914.81;10222739;28;20619;-72
2022/09/21 16:30:43;;;;;;;2.25;0.22;;;;;;;19.03;41.56;100915.28;10224393;28;20061;-70
2022/09/21 16:35:45;;;;;;;1.17;0.33;;;;;;;18.97;42.07;100917.78;10236417;28;20065;-70
2022/09/21 16:40:46;;;;;;;1.70;0.50;;;;;;;18.84;42.01;100918.19;10222071;28;20188;-73
2022/09/21 16:45:47;;;;;;;2.55;0.70;;;;;;;18.67;42.83;100920.81;10223522;28;20497;-73
2022/09/21 16:50:50;;;;;;;2.03;0.80;;;;;;;18.53;43.36;100924.13;10219845;28;20054;-71
2022/09/21 16:55:55;;;;;;;2.03;0.93;;;;;;;18.31;44.37;100915.53;10229331;28;20074;-71
2022/09/21 17:00:56;;;;;;;2.45;1.23;;;;;;;18.25;44.50;100921.56;10219630;28;20058;-71
2022/09/21 17:06:01;;;;;;;2.17;0.80;;;;;;;18.13;44.53;100929.03;10221763;28;20061;-71
2022/09/21 17:11:03;;;;;;;3.13;1.20;;;;;;;17.97;44.29;100921.69;10221328;28;20054;-72
2022/09/21 17:16:04;;;;;;;2.47;0.70;;;;;;;17.91;45.30;100933.09;10216415;28;20054;-70
2022/09/21 17:21:07;;;;;;;2.60;0.90;;;;;;;17.82;45.47;100920.53;10220186;28;20059;-71
2022/09/21 17:26:18;;;;;;;1.60;0.82;;;;;;;17.71;45.33;100935.03;10220267;28;20051;-72
2022/09/21 17:31:22;;;;;;;1.58;0.63;;;;;;;17.58;45.58;100932.75;10223576;28;20250;-72
2022/09/21 17:36:24;;;;;;;1.10;0.88;;;;;;;17.52;46.42;100930.69;10227941;28;20047;-69
2022/09/21 17:41:33;;;;;;;4.68;0.90;;;;;;;17.32;46.82;100932.63;10227864;28;20430;-74
2022/09/21 17:46:44;;;;;;;1.50;0.80;;;;;;;17.16;46.64;100938.69;10230158;28;20376;-73
2022/09/21 17:57:20;;;;;;;1.95;1.17;;;;;;;17.06;47.66;100948.63;10239445;28;20039;-77
2022/09/21 18:02:24;;;;;;;2.40;2.20;;;;;;;16.95;47.54;100945.16;10249541;28;20511;-71
2022/09/21 18:07:26;;;;;;;3.17;1.85;;;;;;;16.90;48.46;100952.81;10231026;28;20094;-74
2022/09/21 18:12:36;;;;;;;2.35;1.65;;;;;;;16.81;48.29;100964.41;10228575;28;20055;-72
2022/09/21 18:17:47;;;;;;;1.55;1.00;;;;;;;16.70;48.50;100968.13;10224021;28;20047;-73
2022/09/21 18:23:22;;;;;;;3.00;1.40;;;;;;;16.54;48.11;100955.31;10224023;28;20051;-74
2022/09/21 18:28:58;;;;;;;4.03;2.20;;;;;;;16.59;48.83;100973.69;10236891;28;20452;-73
2022/09/21 18:34:11;;;;;;;4.07;1.90;;;;;;;16.57;48.71;100972.97;10221474;28;20059;-73
2022/09/21 18:39:22;;;;;;;3.30;2.43;;;;;;;16.59;48.33;100974.53;10223163;28;20341;-75
2022/09/21 18:44:45;;;;;;;1.90;1.27;;;;;;;16.44;48.40;100975.97;10222681;28;20294;-73
2022/09/21 18:50:17;;;;;;;3.37;2.30;;;;;;;16.28;47.62;100984.63;10237144;28;20112;-72
2022/09/21 18:55:25;;;;;;;2.25;1.40;;;;;;;16.26;47.96;100986.59;10222610;28;20714;-76
2022/09/21 19:00:30;;;;;;;3.67;2.40;;;;;;;16.32;49.10;100985.16;10220339;28;20288;-73
2022/09/21 19:05:32;;;;;;;3.65;2.20;;;;;;;16.20;51.02;100982.66;10216705;28;20325;-75
2022/09/21 19:10:42;;;;;;;3.35;2.90;;;;;;;16.25;50.02;100993.81;10222527;28;20051;-72
2022/09/21 19:15:48;;;;;;;3.80;1.92;;;;;;;16.17;49.40;100990.13;10218535;28;20059;-72
2022/09/21 19:21:20;;;;;;;3.92;2.30;;;;;;;16.11;50.65;100982.63;10199197;28;20241;-75
2022/09/21 19:26:37;;;;;;;3.08;2.25;;;;;;;16.10;51.40;100987.16;10226428;28;20065;-72
2022/09/21 19:31:39;;;;;;;2.17;1.90;;;;;;;15.99;50.62;100979.25;10231179;28;21542;-74
2022/09/21 19:36:41;;;;;;;3.05;2.38;;;;;;;15.93;51.16;100985.19;10229579;28;20137;-75
2022/09/21 19:41:57;;;;;;;3.60;2.85;;;;;;;15.88;51.09;100994.53;10225197;28;20699;-73
2022/09/21 19:47:11;;;;;;;5.13;3.00;;;;;;;15.78;51.39;100988.28;10226367;28;20061;-74
2022/09/21 19:52:16;;;;;;;3.88;3.20;;;;;;;15.65;52.17;100983.16;10183216;28;20499;-74
2022/09/21 20:03:20;;;;;;;5.30;3.92;;;;;;;15.62;54.72;100982.59;10182312;28;20190;-71
2022/09/21 20:08:32;;;;;;;5.78;4.07;;;;;;;15.42;55.24;100984.34;10214236;28;20560;-72
2022/09/21 20:13:40;;;;;;;7.20;3.90;;;;;;;15.35;53.92;100986.75;10219857;28;20096;-75
2022/09/21 20:19:05;;;;;;;5.22;3.70;;;;;;;15.38;56.84;100986.47;10216224;28;20214;-74
2022/09/21 20:24:25;;;;;;;6.38;3.67;;;;;;;15.29;54.65;100992.66;10195280;28;20365;-75
2022/09/21 20:29:27;;;;;;;5.22;4.05;;;;;;;15.32;55.06;100984.34;10213243;28;20243;-71
2022/09/21 20:34:30;;;;;;;5.03;4.40;;;;;;;15.20;54.65;100994.31;10220005;28;20055;-75
2022/09/21 20:39:31;;;;;;;5.25;3.45;;;;;;;15.13;54.65;100993.16;10217748;28;20522;-74
2022/09/21 20:44:33;;;;;;;5.35;4.05;;;;;;;14.91;56.11;100989.69;10191580;28;20773;-75
2022/09/21 20:49:34;;;;;;;5.10;3.67;;;;;;;14.94;55.74;100993.94;10178572;28;20479;-75
2022/09/21 20:54:36;;;;;;;4.68;3.50;;;;;;;14.85;56.02;100996.44;10174624;28;20653;-70
2022/09/21 20:59:38;;;;;;;4.15;3.28;;;;;;;14.74;55.84;100992.97;10212529;28;20516;-75
2022/09/21 21:04:39;;;;;;;4.20;3.80;;;;;;;14.63;56.91;100993.91;10221209;28;20142;-75
2022/09/21 21:09:41;;;;;;;6.13;3.72;;;;;;;14.59;57.04;100995.13;10224035;28;21137;-77
2022/09/21 21:14:44;;;;;;;5.18;3.85;;;;;;;14.56;57.45;100984.66;10231108;28;20058;-76
2022/09/21 21:19:45;;;;;;;3.60;3.30;;;;;;;14.66;57.07;100988.28;10239477;28;20478;-71
2022/09/21 21:24:46;;;;;;;5.07;3.92;;;;;;;14.70;57.20;100992.41;10244242;28;20557;-77
2022/09/21 21:29:49;;;;;;;5.18;4.18;;;;;;;14.53;57.00;100990.28;10238629;28;20066;-74
2022/09/21 21:34:52;;;;;;;5.32;3.90;;;;;;;14.38;58.67;100987.97;10241677;28;20046;-73
2022/09/21 21:39:54;;;;;;;4.40;3.25;;;;;;;14.37;58.46;100988.94;10259507;28;20070;-73
2022/09/21 21:44:56;;;;;;;6.10;3.38;;;;;;;14.31;58.50;100986.78;10267404;28;20114;-77
2022/09/21 21:49:57;;;;;;;5.03;3.00;;;;;;;14.26;57.94;100994.31;10263728;28;20046;-76
2022/09/21 21:54:58;;;;;;;4.60;2.97;;;;;;;14.13;58.85;100981.16;10243036;28;20055;-72
2022/09/21 22:00:00;;;;;;;3.20;2.90;;;;;;;14.00;59.58;100983.97;10232010;28;20081;-74
2022/09/21 22:05:01;;;;;;;3.60;2.53;;;;;;;13.79;59.73;100998.16;10239166;28;20051;-74
2022/09/21 22:10:03;;;;;;;2.55;2.00;;;;;;;13.95;61.43;100994.25;10237267;28;20058;-74
2022/09/21 22:15:05;;;;;;;4.05;2.80;;;;;;;13.94;60.31;100990.69;10234728;28;20050;-71
2022/09/21 22:20:07;;;;;;;3.13;2.33;;;;;;;13.96;61.36;100996.78;10243326;28;20058;-71
2022/09/21 22:25:08;;;;;;;2.70;2.30;;;;;;;13.81;61.06;101005.22;10243884;28;20047;-72
2022/09/21 22:30:10;;;;;;;3.17;2.53;;;;;;;13.61;61.52;100988.97;10245960;28;20051;-71
2022/09/21 22:35:11;;;;;;;3.55;2.78;;;;;;;13.74;62.29;100994.19;10252803;28;20074;-74
2022/09/21 22:40:14;;;;;;;3.47;2.50;;;;;;;13.71;61.83;100997.13;10242653;28;20110;-73
2022/09/21 22:45:15;;;;;;;2.83;2.30;;;;;;;13.85;63.32;100985.25;10241671;28;20059;-71
2022/09/21 22:50:16;;;;;;;2.95;2.15;;;;;;;13.74;63.57;100984.31;10240625;28;20435;-72
2022/09/21 22:55:18;;;;;;;3.63;2.10;;;;;;;13.75;62.33;100987.84;10242782;28;20081;-75
2022/09/21 23:00:19;;;;;;;3.30;2.10;;;;;;;13.67;63.08;100993.81;10244375;28;20050;-72
2022/09/21 23:05:21;;;;;;;4.10;2.20;;;;;;;13.36;63.50;100979.41;10244407;28;20492;-74
2022/09/21 23:10:25;;;;;;;3.90;2.30;;;;;;;13.22;64.12;100985.84;10247536;28;20062;-74
2022/09/21 23:15:26;;;;;;;4.30;2.37;;;;;;;13.12;64.89;100976.84;10267193;28;20077;-77
2022/09/21 23:20:28;;;;;;;2.55;2.10;;;;;;;12.95;65.06;100980.88;10274271;28;20054;-75
2022/09/21 23:25:29;;;;;;;3.72;2.00;;;;;;;12.76;65.72;100978.78;10238545;28;20055;-72
2022/09/21 23:30:30;;;;;;;3.50;2.60;;;;;;;12.71;66.15;100974.66;10247128;28;20054;-74
2022/09/21 23:35:31;;;;;;;3.55;2.20;;;;;;;12.61;66.75;100979.03;10245472;28;20051;-74
2022/09/21 23:40:33;;;;;;;5.38;2.35;;;;;;;12.45;67.45;100965.16;10245644;28;20102;-76
2022/09/21 23:45:34;;;;;;;2.15;1.95;;;;;;;12.42;67.53;100973.41;10247973;28;20059;-75
2022/09/21 23:50:35;;;;;;;3.17;2.88;;;;;;;12.33;67.94;100970.47;10263355;28;20054;-74